sensor_id;sensor_type;location;lat;lon;timestamp;P1;durP1;ratioP1;P2;durP2;ratioP2
42760;SDS011;31672;47.638;19.026;2023-04-06T00:03:05;7.33;;;4.10;;
42760;SDS011;31672;47.638;19.026;2023-04-06T00:08:08;9.40;;;5.13;;
42760;SDS011;31672;47.638;19.026;2023-04-06T00:13:12;8.27;;;4.53;;
42760;SDS011;31672;47.638;19.026;2023-04-06T00:18:15;7.30;;;3.50;;
42760;SDS011;31672;47.638;19.026;2023-04-06T00:23:18;9.27;;;4.83;;
42760;SDS011;31672;47.638;19.026;2023-04-06T00:28:21;7.80;;;4.67;;
42760;SDS011;31672;47.638;19.026;2023-04-06T00:33:27;7.90;;;3.33;;
42760;SDS011;31672;47.638;19.026;2023-04-06T00:38:31;8.97;;;4.50;;
42760;SDS011;31672;47.638;19.026;2023-04-06T00:43:34;15.03;;;6.60;;
42760;SDS011;31672;47.638;19.026;2023-04-06T00:48:37;21.37;;;8.37;;
42760;SDS011;31672;47.638;19.026;2023-04-06T00:53:41;15.03;;;6.83;;
42760;SDS011;31672;47.638;19.026;2023-04-06T00:58:44;15.10;;;6.90;;
42760;SDS011;31672;47.638;19.026;2023-04-06T01:03:47;9.67;;;4.73;;
42760;SDS011;31672;47.638;19.026;2023-04-06T01:08:52;11.07;;;3.93;;
42760;SDS011;31672;47.638;19.026;2023-04-06T01:13:55;9.10;;;4.40;;
42760;SDS011;31672;47.638;19.026;2023-04-06T01:18:58;11.43;;;4.67;;
42760;SDS011;31672;47.638;19.026;2023-04-06T01:24:01;8.27;;;4.20;;
42760;SDS011;31672;47.638;19.026;2023-04-06T01:29:04;8.10;;;4.00;;
42760;SDS011;31672;47.638;19.026;2023-04-06T01:34:08;9.87;;;4.77;;
42760;SDS011;31672;47.638;19.026;2023-04-06T01:39:11;8.57;;;4.70;;
42760;SDS011;31672;47.638;19.026;2023-04-06T01:44:17;9.20;;;4.67;;
42760;SDS011;31672;47.638;19.026;2023-04-06T01:49:21;9.80;;;5.37;;
42760;SDS011;31672;47.638;19.026;2023-04-06T01:54:24;12.37;;;6.30;;
42760;SDS011;31672;47.638;19.026;2023-04-06T01:59:27;15.67;;;7.70;;
42760;SDS011;31672;47.638;19.026;2023-04-06T02:04:30;10.27;;;5.70;;
42760;SDS011;31672;47.638;19.026;2023-04-06T02:09:33;8.73;;;4.60;;
42760;SDS011;31672;47.638;19.026;2023-04-06T02:14:38;8.90;;;4.30;;
42760;SDS011;31672;47.638;19.026;2023-04-06T02:19:42;10.33;;;4.43;;
42760;SDS011;31672;47.638;19.026;2023-04-06T02:24:44;14.57;;;6.07;;
42760;SDS011;31672;47.638;19.026;2023-04-06T02:29:48;14.97;;;5.87;;
42760;SDS011;31672;47.638;19.026;2023-04-06T02:34:52;13.63;;;5.60;;
42760;SDS011;31672;47.638;19.026;2023-04-06T02:39:55;15.57;;;6.50;;
42760;SDS011;31672;47.638;19.026;2023-04-06T02:44:59;9.37;;;5.07;;
42760;SDS011;31672;47.638;19.026;2023-04-06T02:50:02;10.00;;;4.90;;
42760;SDS011;31672;47.638;19.026;2023-04-06T02:55:06;13.77;;;5.83;;
42760;SDS011;31672;47.638;19.026;2023-04-06T03:00:10;10.37;;;5.27;;
42760;SDS011;31672;47.638;19.026;2023-04-06T03:05:14;8.57;;;4.30;;
42760;SDS011;31672;47.638;19.026;2023-04-06T03:10:18;11.27;;;4.50;;
42760;SDS011;31672;47.638;19.026;2023-04-06T03:15:21;10.40;;;6.13;;
42760;SDS011;31672;47.638;19.026;2023-04-06T03:20:24;11.97;;;4.47;;
42760;SDS011;31672;47.638;19.026;2023-04-06T03:25:27;13.23;;;7.20;;
42760;SDS011;31672;47.638;19.026;2023-04-06T03:30:32;10.90;;;5.53;;
42760;SDS011;31672;47.638;19.026;2023-04-06T03:35:36;10.80;;;5.50;;
42760;SDS011;31672;47.638;19.026;2023-04-06T03:40:39;9.90;;;4.17;;
42760;SDS011;31672;47.638;19.026;2023-04-06T03:45:43;11.50;;;4.87;;
42760;SDS011;31672;47.638;19.026;2023-04-06T03:50:46;9.23;;;4.77;;
42760;SDS011;31672;47.638;19.026;2023-04-06T03:55:49;8.93;;;4.73;;
42760;SDS011;31672;47.638;19.026;2023-04-06T04:00:52;7.83;;;3.93;;
42760;SDS011;31672;47.638;19.026;2023-04-06T04:05:55;9.07;;;4.77;;
42760;SDS011;31672;47.638;19.026;2023-04-06T04:10:58;6.07;;;3.40;;
42760;SDS011;31672;47.638;19.026;2023-04-06T04:16:02;6.57;;;2.90;;
42760;SDS011;31672;47.638;19.026;2023-04-06T04:21:06;9.97;;;4.60;;
42760;SDS011;31672;47.638;19.026;2023-04-06T04:26:09;7.03;;;3.77;;
42760;SDS011;31672;47.638;19.026;2023-04-06T04:31:13;13.33;;;5.00;;
42760;SDS011;31672;47.638;19.026;2023-04-06T04:36:16;8.77;;;3.77;;
42760;SDS011;31672;47.638;19.026;2023-04-06T04:41:20;13.10;;;6.30;;
42760;SDS011;31672;47.638;19.026;2023-04-06T04:46:23;13.10;;;5.47;;
42760;SDS011;31672;47.638;19.026;2023-04-06T04:51:27;10.00;;;6.10;;
42760;SDS011;31672;47.638;19.026;2023-04-06T04:56:30;12.13;;;6.50;;
42760;SDS011;31672;47.638;19.026;2023-04-06T05:01:33;14.33;;;7.07;;
42760;SDS011;31672;47.638;19.026;2023-04-06T05:07:08;17.17;;;7.37;;
42760;SDS011;31672;47.638;19.026;2023-04-06T05:12:11;13.33;;;6.63;;
42760;SDS011;31672;47.638;19.026;2023-04-06T05:17:14;13.23;;;6.47;;
42760;SDS011;31672;47.638;19.026;2023-04-06T05:22:17;17.33;;;7.03;;
42760;SDS011;31672;47.638;19.026;2023-04-06T05:27:20;13.90;;;7.57;;
42760;SDS011;31672;47.638;19.026;2023-04-06T05:32:24;15.23;;;7.37;;
42760;SDS011;31672;47.638;19.026;2023-04-06T05:37:27;12.37;;;6.33;;
42760;SDS011;31672;47.638;19.026;2023-04-06T05:42:40;13.50;;;6.97;;
42760;SDS011;31672;47.638;19.026;2023-04-06T05:47:47;14.30;;;7.17;;
42760;SDS011;31672;47.638;19.026;2023-04-06T05:52:50;12.37;;;5.43;;
42760;SDS011;31672;47.638;19.026;2023-04-06T05:57:53;13.27;;;7.13;;
42760;SDS011;31672;47.638;19.026;2023-04-06T06:02:56;16.97;;;10.43;;
42760;SDS011;31672;47.638;19.026;2023-04-06T06:07:59;19.27;;;9.13;;
42760;SDS011;31672;47.638;19.026;2023-04-06T06:13:04;9.40;;;5.60;;
42760;SDS011;31672;47.638;19.026;2023-04-06T06:18:07;7.87;;;4.50;;
42760;SDS011;31672;47.638;19.026;2023-04-06T06:23:11;8.13;;;5.00;;
42760;SDS011;31672;47.638;19.026;2023-04-06T06:28:14;9.73;;;4.80;;
42760;SDS011;31672;47.638;19.026;2023-04-06T06:33:17;45.53;;;13.73;;
42760;SDS011;31672;47.638;19.026;2023-04-06T06:38:20;12.30;;;5.87;;
42760;SDS011;31672;47.638;19.026;2023-04-06T06:43:25;12.10;;;6.47;;
42760;SDS011;31672;47.638;19.026;2023-04-06T06:48:28;9.67;;;5.27;;
42760;SDS011;31672;47.638;19.026;2023-04-06T06:53:31;11.43;;;5.50;;
42760;SDS011;31672;47.638;19.026;2023-04-06T06:58:34;11.83;;;5.40;;
42760;SDS011;31672;47.638;19.026;2023-04-06T07:03:37;9.63;;;5.17;;
42760;SDS011;31672;47.638;19.026;2023-04-06T07:08:40;11.03;;;5.07;;
42760;SDS011;31672;47.638;19.026;2023-04-06T07:13:43;9.20;;;4.33;;
42760;SDS011;31672;47.638;19.026;2023-04-06T07:18:46;9.93;;;4.93;;
42760;SDS011;31672;47.638;19.026;2023-04-06T07:23:49;19.30;;;8.63;;
42760;SDS011;31672;47.638;19.026;2023-04-06T07:28:52;13.60;;;6.03;;
42760;SDS011;31672;47.638;19.026;2023-04-06T07:33:55;13.73;;;5.30;;
42760;SDS011;31672;47.638;19.026;2023-04-06T07:38:59;12.33;;;6.37;;
42760;SDS011;31672;47.638;19.026;2023-04-06T07:44:02;10.73;;;5.80;;
42760;SDS011;31672;47.638;19.026;2023-04-06T07:49:06;11.73;;;6.17;;
42760;SDS011;31672;47.638;19.026;2023-04-06T07:54:09;15.87;;;6.87;;
42760;SDS011;31672;47.638;19.026;2023-04-06T07:59:12;11.67;;;6.50;;
42760;SDS011;31672;47.638;19.026;2023-04-06T08:04:16;9.33;;;5.43;;
42760;SDS011;31672;47.638;19.026;2023-04-06T08:09:20;10.40;;;5.07;;
42760;SDS011;31672;47.638;19.026;2023-04-06T08:14:23;10.10;;;5.37;;
42760;SDS011;31672;47.638;19.026;2023-04-06T08:19:26;11.07;;;4.80;;
42760;SDS011;31672;47.638;19.026;2023-04-06T08:24:29;7.17;;;4.63;;
42760;SDS011;31672;47.638;19.026;2023-04-06T08:29:34;13.03;;;6.37;;
42760;SDS011;31672;47.638;19.026;2023-04-06T08:34:37;10.73;;;5.50;;
42760;SDS011;31672;47.638;19.026;2023-04-06T08:39:40;9.00;;;4.90;;
42760;SDS011;31672;47.638;19.026;2023-04-06T08:44:44;10.80;;;5.33;;
42760;SDS011;31672;47.638;19.026;2023-04-06T08:49:48;10.10;;;4.70;;
42760;SDS011;31672;47.638;19.026;2023-04-06T08:54:52;9.73;;;5.60;;
42760;SDS011;31672;47.638;19.026;2023-04-06T08:59:55;10.87;;;6.33;;
42760;SDS011;31672;47.638;19.026;2023-04-06T09:05:00;8.57;;;5.00;;
42760;SDS011;31672;47.638;19.026;2023-04-06T09:10:04;11.73;;;5.67;;
42760;SDS011;31672;47.638;19.026;2023-04-06T09:15:17;9.83;;;5.83;;
42760;SDS011;31672;47.638;19.026;2023-04-06T09:20:26;10.60;;;5.67;;
42760;SDS011;31672;47.638;19.026;2023-04-06T09:25:30;10.73;;;5.20;;
42760;SDS011;31672;47.638;19.026;2023-04-06T09:30:34;12.67;;;6.00;;
42760;SDS011;31672;47.638;19.026;2023-04-06T09:35:38;10.20;;;4.77;;
42760;SDS011;31672;47.638;19.026;2023-04-06T09:40:50;8.77;;;4.40;;
42760;SDS011;31672;47.638;19.026;2023-04-06T09:46:02;13.43;;;6.60;;
42760;SDS011;31672;47.638;19.026;2023-04-06T09:51:06;8.60;;;4.37;;
42760;SDS011;31672;47.638;19.026;2023-04-06T09:56:16;8.53;;;4.40;;
42760;SDS011;31672;47.638;19.026;2023-04-06T10:01:23;8.27;;;4.50;;
42760;SDS011;31672;47.638;19.026;2023-04-06T10:06:31;8.13;;;4.77;;
42760;SDS011;31672;47.638;19.026;2023-04-06T10:11:38;15.00;;;7.27;;
42760;SDS011;31672;47.638;19.026;2023-04-06T10:16:42;8.93;;;5.30;;
42760;SDS011;31672;47.638;19.026;2023-04-06T10:21:45;6.40;;;4.40;;
42760;SDS011;31672;47.638;19.026;2023-04-06T10:27:02;7.77;;;4.87;;
42760;SDS011;31672;47.638;19.026;2023-04-06T10:32:08;7.43;;;4.10;;
42760;SDS011;31672;47.638;19.026;2023-04-06T10:37:15;9.93;;;5.13;;
42760;SDS011;31672;47.638;19.026;2023-04-06T10:42:24;8.73;;;4.47;;
42760;SDS011;31672;47.638;19.026;2023-04-06T10:47:39;8.37;;;3.77;;
42760;SDS011;31672;47.638;19.026;2023-04-06T10:52:44;7.23;;;4.43;;
42760;SDS011;31672;47.638;19.026;2023-04-06T10:57:48;5.60;;;3.77;;
42760;SDS011;31672;47.638;19.026;2023-04-06T11:02:58;6.80;;;3.80;;
42760;SDS011;31672;47.638;19.026;2023-04-06T11:08:03;7.07;;;4.10;;
42760;SDS011;31672;47.638;19.026;2023-04-06T11:13:06;8.13;;;4.57;;
42760;SDS011;31672;47.638;19.026;2023-04-06T11:18:11;6.73;;;3.40;;
42760;SDS011;31672;47.638;19.026;2023-04-06T11:23:21;6.07;;;3.90;;
42760;SDS011;31672;47.638;19.026;2023-04-06T11:28:28;6.23;;;4.03;;
42760;SDS011;31672;47.638;19.026;2023-04-06T11:33:35;7.17;;;4.33;;
42760;SDS011;31672;47.638;19.026;2023-04-06T11:38:40;7.40;;;4.20;;
42760;SDS011;31672;47.638;19.026;2023-04-06T11:43:46;6.30;;;3.80;;
42760;SDS011;31672;47.638;19.026;2023-04-06T11:48:49;6.77;;;3.80;;
42760;SDS011;31672;47.638;19.026;2023-04-06T11:53:53;6.33;;;4.17;;
42760;SDS011;31672;47.638;19.026;2023-04-06T11:58:58;8.30;;;4.53;;
42760;SDS011;31672;47.638;19.026;2023-04-06T12:04:04;8.07;;;4.93;;
42760;SDS011;31672;47.638;19.026;2023-04-06T12:09:07;7.83;;;4.77;;
42760;SDS011;31672;47.638;19.026;2023-04-06T12:14:10;8.57;;;4.67;;
42760;SDS011;31672;47.638;19.026;2023-04-06T12:19:14;7.27;;;4.63;;
42760;SDS011;31672;47.638;19.026;2023-04-06T12:24:17;9.70;;;4.80;;
42760;SDS011;31672;47.638;19.026;2023-04-06T12:29:20;8.63;;;4.53;;
42760;SDS011;31672;47.638;19.026;2023-04-06T12:34:24;9.57;;;5.43;;
42760;SDS011;31672;47.638;19.026;2023-04-06T12:39:28;7.67;;;4.20;;
42760;SDS011;31672;47.638;19.026;2023-04-06T12:44:31;7.53;;;4.20;;
42760;SDS011;31672;47.638;19.026;2023-04-06T12:49:35;7.80;;;4.27;;
42760;SDS011;31672;47.638;19.026;2023-04-06T12:54:37;7.33;;;3.97;;
42760;SDS011;31672;47.638;19.026;2023-04-06T12:59:44;6.20;;;3.33;;
42760;SDS011;31672;47.638;19.026;2023-04-06T13:04:48;8.57;;;4.67;;
42760;SDS011;31672;47.638;19.026;2023-04-06T13:09:52;6.53;;;3.70;;
42760;SDS011;31672;47.638;19.026;2023-04-06T13:14:56;10.43;;;4.90;;
42760;SDS011;31672;47.638;19.026;2023-04-06T13:19:59;8.80;;;4.87;;
42760;SDS011;31672;47.638;19.026;2023-04-06T13:25:02;8.70;;;4.60;;
42760;SDS011;31672;47.638;19.026;2023-04-06T13:30:06;8.83;;;4.10;;
42760;SDS011;31672;47.638;19.026;2023-04-06T13:35:10;6.37;;;3.60;;
42760;SDS011;31672;47.638;19.026;2023-04-06T13:40:13;6.30;;;3.50;;
42760;SDS011;31672;47.638;19.026;2023-04-06T13:45:17;9.73;;;4.57;;
42760;SDS011;31672;47.638;19.026;2023-04-06T13:50:20;5.20;;;3.20;;
42760;SDS011;31672;47.638;19.026;2023-04-06T13:55:23;5.73;;;3.53;;
42760;SDS011;31672;47.638;19.026;2023-04-06T14:00:28;6.30;;;3.60;;
42760;SDS011;31672;47.638;19.026;2023-04-06T14:05:32;8.23;;;4.90;;
42760;SDS011;31672;47.638;19.026;2023-04-06T14:10:39;10.30;;;5.00;;
42760;SDS011;31672;47.638;19.026;2023-04-06T14:15:44;9.67;;;5.53;;
42760;SDS011;31672;47.638;19.026;2023-04-06T14:20:57;8.83;;;4.53;;
42760;SDS011;31672;47.638;19.026;2023-04-06T14:26:04;11.60;;;4.50;;
42760;SDS011;31672;47.638;19.026;2023-04-06T14:31:14;8.83;;;4.37;;
42760;SDS011;31672;47.638;19.026;2023-04-06T14:36:18;5.57;;;4.00;;
42760;SDS011;31672;47.638;19.026;2023-04-06T14:41:22;8.90;;;4.23;;
42760;SDS011;31672;47.638;19.026;2023-04-06T14:46:27;6.03;;;3.70;;
42760;SDS011;31672;47.638;19.026;2023-04-06T14:51:33;6.87;;;3.97;;
42760;SDS011;31672;47.638;19.026;2023-04-06T14:56:36;6.87;;;3.80;;
42760;SDS011;31672;47.638;19.026;2023-04-06T15:01:40;43.60;;;20.07;;
42760;SDS011;31672;47.638;19.026;2023-04-06T15:06:44;9.87;;;5.63;;
42760;SDS011;31672;47.638;19.026;2023-04-06T15:11:47;6.90;;;4.00;;
42760;SDS011;31672;47.638;19.026;2023-04-06T15:16:50;8.70;;;4.97;;
42760;SDS011;31672;47.638;19.026;2023-04-06T15:21:53;6.63;;;4.27;;
42760;SDS011;31672;47.638;19.026;2023-04-06T15:26:56;9.17;;;5.90;;
42760;SDS011;31672;47.638;19.026;2023-04-06T15:31:59;7.07;;;4.47;;
42760;SDS011;31672;47.638;19.026;2023-04-06T15:37:02;6.33;;;4.27;;
42760;SDS011;31672;47.638;19.026;2023-04-06T15:42:07;9.53;;;3.87;;
42760;SDS011;31672;47.638;19.026;2023-04-06T15:47:10;6.83;;;3.60;;
42760;SDS011;31672;47.638;19.026;2023-04-06T15:52:13;5.77;;;4.10;;
42760;SDS011;31672;47.638;19.026;2023-04-06T15:57:16;8.73;;;4.40;;
42760;SDS011;31672;47.638;19.026;2023-04-06T16:02:19;8.30;;;5.03;;
42760;SDS011;31672;47.638;19.026;2023-04-06T16:07:24;11.30;;;5.53;;
42760;SDS011;31672;47.638;19.026;2023-04-06T16:12:28;9.07;;;5.73;;
42760;SDS011;31672;47.638;19.026;2023-04-06T16:17:31;8.13;;;5.50;;
42760;SDS011;31672;47.638;19.026;2023-04-06T16:22:34;7.23;;;4.93;;
42760;SDS011;31672;47.638;19.026;2023-04-06T16:27:37;12.67;;;6.23;;
42760;SDS011;31672;47.638;19.026;2023-04-06T16:32:40;12.50;;;6.87;;
42760;SDS011;31672;47.638;19.026;2023-04-06T16:37:44;10.97;;;6.20;;
42760;SDS011;31672;47.638;19.026;2023-04-06T16:42:47;9.57;;;5.87;;
42760;SDS011;31672;47.638;19.026;2023-04-06T16:47:50;19.83;;;10.60;;
42760;SDS011;31672;47.638;19.026;2023-04-06T16:52:54;10.97;;;7.13;;
42760;SDS011;31672;47.638;19.026;2023-04-06T16:57:57;10.30;;;6.67;;
42760;SDS011;31672;47.638;19.026;2023-04-06T17:03:00;12.13;;;6.70;;
42760;SDS011;31672;47.638;19.026;2023-04-06T17:08:03;13.50;;;7.23;;
42760;SDS011;31672;47.638;19.026;2023-04-06T17:13:06;11.03;;;6.73;;
42760;SDS011;31672;47.638;19.026;2023-04-06T17:18:09;16.87;;;8.33;;
42760;SDS011;31672;47.638;19.026;2023-04-06T17:23:13;12.50;;;7.33;;
42760;SDS011;31672;47.638;19.026;2023-04-06T17:28:17;14.60;;;9.17;;
42760;SDS011;31672;47.638;19.026;2023-04-06T17:33:20;12.13;;;8.00;;
42760;SDS011;31672;47.638;19.026;2023-04-06T17:38:23;14.63;;;8.40;;
42760;SDS011;31672;47.638;19.026;2023-04-06T17:43:26;14.20;;;9.23;;
42760;SDS011;31672;47.638;19.026;2023-04-06T17:48:29;15.97;;;9.77;;
42760;SDS011;31672;47.638;19.026;2023-04-06T17:53:33;17.20;;;10.10;;
42760;SDS011;31672;47.638;19.026;2023-04-06T17:58:38;16.57;;;10.47;;
42760;SDS011;31672;47.638;19.026;2023-04-06T18:03:41;18.13;;;11.07;;
42760;SDS011;31672;47.638;19.026;2023-04-06T18:08:44;19.40;;;12.80;;
42760;SDS011;31672;47.638;19.026;2023-04-06T18:13:47;20.33;;;12.10;;
42760;SDS011;31672;47.638;19.026;2023-04-06T18:18:51;23.30;;;14.67;;
42760;SDS011;31672;47.638;19.026;2023-04-06T18:23:54;23.47;;;14.30;;
42760;SDS011;31672;47.638;19.026;2023-04-06T18:28:58;17.63;;;11.07;;
42760;SDS011;31672;47.638;19.026;2023-04-06T18:34:01;19.43;;;11.93;;
42760;SDS011;31672;47.638;19.026;2023-04-06T18:39:05;24.97;;;16.27;;
42760;SDS011;31672;47.638;19.026;2023-04-06T18:44:08;22.27;;;13.30;;
42760;SDS011;31672;47.638;19.026;2023-04-06T18:49:11;22.40;;;13.87;;
42760;SDS011;31672;47.638;19.026;2023-04-06T18:54:15;23.50;;;12.97;;
42760;SDS011;31672;47.638;19.026;2023-04-06T18:59:18;21.80;;;12.87;;
42760;SDS011;31672;47.638;19.026;2023-04-06T19:04:21;22.23;;;13.30;;
42760;SDS011;31672;47.638;19.026;2023-04-06T19:09:24;20.07;;;11.93;;
42760;SDS011;31672;47.638;19.026;2023-04-06T19:14:30;16.90;;;10.87;;
42760;SDS011;31672;47.638;19.026;2023-04-06T19:19:34;24.83;;;12.77;;
42760;SDS011;31672;47.638;19.026;2023-04-06T19:24:39;21.80;;;13.37;;
42760;SDS011;31672;47.638;19.026;2023-04-06T19:29:43;27.10;;;15.10;;
42760;SDS011;31672;47.638;19.026;2023-04-06T19:34:47;24.43;;;13.73;;
42760;SDS011;31672;47.638;19.026;2023-04-06T19:39:50;20.40;;;14.00;;
42760;SDS011;31672;47.638;19.026;2023-04-06T19:44:53;24.63;;;14.13;;
42760;SDS011;31672;47.638;19.026;2023-04-06T19:50:00;22.63;;;12.93;;
42760;SDS011;31672;47.638;19.026;2023-04-06T19:55:04;25.37;;;16.17;;
42760;SDS011;31672;47.638;19.026;2023-04-06T20:00:08;23.27;;;14.23;;
42760;SDS011;31672;47.638;19.026;2023-04-06T20:05:12;25.90;;;14.40;;
42760;SDS011;31672;47.638;19.026;2023-04-06T20:10:15;23.40;;;13.60;;
42760;SDS011;31672;47.638;19.026;2023-04-06T20:15:19;23.50;;;13.90;;
42760;SDS011;31672;47.638;19.026;2023-04-06T20:20:24;23.03;;;12.67;;
42760;SDS011;31672;47.638;19.026;2023-04-06T20:25:27;20.20;;;12.87;;
42760;SDS011;31672;47.638;19.026;2023-04-06T20:30:30;19.23;;;12.70;;
42760;SDS011;31672;47.638;19.026;2023-04-06T20:35:33;20.73;;;13.00;;
42760;SDS011;31672;47.638;19.026;2023-04-06T20:40:37;20.00;;;12.70;;
42760;SDS011;31672;47.638;19.026;2023-04-06T20:45:45;17.70;;;12.13;;
42760;SDS011;31672;47.638;19.026;2023-04-06T20:50:50;19.63;;;13.10;;
42760;SDS011;31672;47.638;19.026;2023-04-06T20:55:54;18.70;;;11.80;;
42760;SDS011;31672;47.638;19.026;2023-04-06T21:00:59;18.27;;;11.97;;
42760;SDS011;31672;47.638;19.026;2023-04-06T21:06:02;18.80;;;12.73;;
42760;SDS011;31672;47.638;19.026;2023-04-06T21:11:05;18.27;;;11.90;;
42760;SDS011;31672;47.638;19.026;2023-04-06T21:16:08;17.33;;;12.17;;
42760;SDS011;31672;47.638;19.026;2023-04-06T21:21:12;17.43;;;11.77;;
42760;SDS011;31672;47.638;19.026;2023-04-06T21:26:15;19.77;;;12.53;;
42760;SDS011;31672;47.638;19.026;2023-04-06T21:31:19;20.70;;;13.30;;
42760;SDS011;31672;47.638;19.026;2023-04-06T21:36:23;18.47;;;11.87;;
42760;SDS011;31672;47.638;19.026;2023-04-06T21:41:29;17.70;;;11.57;;
42760;SDS011;31672;47.638;19.026;2023-04-06T21:46:34;17.70;;;10.80;;
42760;SDS011;31672;47.638;19.026;2023-04-06T21:51:37;18.37;;;12.87;;
42760;SDS011;31672;47.638;19.026;2023-04-06T21:56:40;19.40;;;12.43;;
42760;SDS011;31672;47.638;19.026;2023-04-06T22:01:42;17.30;;;11.17;;
42760;SDS011;31672;47.638;19.026;2023-04-06T22:06:46;19.70;;;11.97;;
42760;SDS011;31672;47.638;19.026;2023-04-06T22:11:49;16.17;;;10.60;;
42760;SDS011;31672;47.638;19.026;2023-04-06T22:16:52;14.23;;;9.77;;
42760;SDS011;31672;47.638;19.026;2023-04-06T22:21:55;17.57;;;11.77;;
42760;SDS011;31672;47.638;19.026;2023-04-06T22:26:58;16.80;;;11.67;;
42760;SDS011;31672;47.638;19.026;2023-04-06T22:32:01;17.30;;;10.83;;
42760;SDS011;31672;47.638;19.026;2023-04-06T22:37:05;15.40;;;10.37;;
42760;SDS011;31672;47.638;19.026;2023-04-06T22:42:08;16.50;;;10.70;;
42760;SDS011;31672;47.638;19.026;2023-04-06T22:47:11;16.83;;;11.67;;
42760;SDS011;31672;47.638;19.026;2023-04-06T22:52:14;17.47;;;11.43;;
42760;SDS011;31672;47.638;19.026;2023-04-06T22:57:18;18.17;;;11.57;;
42760;SDS011;31672;47.638;19.026;2023-04-06T23:02:21;19.20;;;12.03;;
42760;SDS011;31672;47.638;19.026;2023-04-06T23:07:24;18.53;;;11.73;;
42760;SDS011;31672;47.638;19.026;2023-04-06T23:12:28;16.97;;;10.90;;
42760;SDS011;31672;47.638;19.026;2023-04-06T23:17:31;19.13;;;11.53;;
42760;SDS011;31672;47.638;19.026;2023-04-06T23:22:35;19.47;;;11.20;;
42760;SDS011;31672;47.638;19.026;2023-04-06T23:27:38;16.43;;;10.60;;
42760;SDS011;31672;47.638;19.026;2023-04-06T23:32:41;15.67;;;9.60;;
42760;SDS011;31672;47.638;19.026;2023-04-06T23:37:44;19.33;;;11.37;;
42760;SDS011;31672;47.638;19.026;2023-04-06T23:42:47;16.40;;;11.17;;
42760;SDS011;31672;47.638;19.026;2023-04-06T23:47:50;18.80;;;10.53;;
42760;SDS011;31672;47.638;19.026;2023-04-06T23:52:53;18.07;;;10.80;;
42760;SDS011;31672;47.638;19.026;2023-04-06T23:57:57;15.63;;;9.87;;
